Wilkes Barre Township, Pennsylvania
Current Conditions -  °F | °C
As of 8:54 AM on Friday 24 Oct 2014 (Local Time) from KAVP Reporting Station
Overcast Overcast  
Wind Chill: 51°   Ceiling: 2000
Heat Index: 51°   Visibility: 10mi
Dew Point: 42°   Wind: 9mph
Humidity: 71%   Direction: 320°NW
Pressure: 29.91"   Gusts: NA
Location:  41.1921°N, 75.9213°W
Report Text: KAVP 241254Z AUTO 32008KT 10SM OVC020 11/06 A2991 RMK AO2 SLP128 T01060056
Loading
Personal Weather Stations






























Interactive Weather Map
Tropical Storm Tracking
New forecast layout! Learn more

10-Day Weather Forecast

Advertisements
Track Severe Weather on mobile